Time;durP1;ratioP1;P1;durP2;ratioP2;P2;SDS_P1;SDS_P2;PMS_P1;PMS_P2;Temp;Humidity;BMP_temperature;BMP_pressure;BME280_temperature;BME280_humidity;BME280_pressure;Samples;Min_cycle;Max_cycle;Signal;HPM_P1;HPM_P2
2022/10/29 00:01:55;;;;;;;76.60;50.20;;;9.10;99.90;;;;;;5001194;28;20100;-70
2022/10/29 00:04:22;;;;;;;80.22;53.08;;;9.10;99.90;;;;;;4996907;28;20388;-71
2022/10/29 00:06:49;;;;;;;83.63;56.45;;;9.10;99.90;;;;;;4994951;28;20478;-71
2022/10/29 00:09:17;;;;;;;82.47;56.92;;;9.20;99.90;;;;;;4995034;28;20046;-71
2022/10/29 00:11:47;;;;;;;121.03;69.13;;;9.20;99.90;;;;;;5007028;28;20366;-73
2022/10/29 00:14:17;;;;;;;123.35;67.88;;;9.20;99.90;;;;;;4993081;28;20042;-70
2022/10/29 00:16:45;;;;;;;125.40;69.65;;;9.20;99.90;;;;;;4998026;28;20149;-71
2022/10/29 00:19:15;;;;;;;84.95;53.97;;;9.20;99.90;;;;;;4995587;28;20261;-71
2022/10/29 00:21:42;;;;;;;78.38;54.05;;;9.10;99.90;;;;;;4996883;28;20136;-71
2022/10/29 00:24:10;;;;;;;67.15;48.75;;;9.10;99.90;;;;;;4996707;28;20045;-71
2022/10/29 00:26:38;;;;;;;71.07;49.17;;;9.10;99.90;;;;;;4993486;28;20058;-70
2022/10/29 00:29:05;;;;;;;66.90;48.30;;;9.10;99.90;;;;;;5001225;23;20046;-71
2022/10/29 00:31:34;;;;;;;73.15;51.03;;;9.20;99.90;;;;;;4981243;28;20131;-70
2022/10/29 00:34:02;;;;;;;68.47;49.58;;;9.20;99.90;;;;;;4975221;28;20038;-71
2022/10/29 00:36:30;;;;;;;69.05;51.22;;;9.10;99.90;;;;;;4955288;29;20233;-72
2022/10/29 00:38:58;;;;;;;69.63;51.45;;;9.20;99.90;;;;;;4955727;29;20118;-71
2022/10/29 00:41:27;;;;;;;88.53;52.90;;;9.20;99.90;;;;;;4955126;29;20102;-73
2022/10/29 00:44:30;;;;;;;98.25;53.50;;;9.10;99.90;;;;;;4955078;29;20046;-72
2022/10/29 00:47:04;;;;;;;81.97;55.15;;;9.10;99.90;;;;;;4951530;29;20134;-71
2022/10/29 00:49:34;;;;;;;84.47;57.20;;;9.10;99.90;;;;;;4954641;28;20039;-71
2022/10/29 00:52:03;;;;;;;83.18;54.40;;;9.10;99.90;;;;;;4955579;29;20047;-70
2022/10/29 00:54:31;;;;;;;82.55;53.30;;;9.20;99.90;;;;;;4955173;29;20035;-73
2022/10/29 00:57:03;;;;;;;82.93;53.03;;;9.20;99.90;;;;;;4954563;29;20039;-72
2022/10/29 00:59:30;;;;;;;82.43;53.58;;;9.10;99.90;;;;;;4954685;29;20122;-73
2022/10/29 01:01:59;;;;;;;90.13;52.22;;;9.10;99.90;;;;;;4955616;29;20043;-71
2022/10/29 01:04:27;;;;;;;93.25;53.75;;;9.10;99.90;;;;;;4955145;29;20046;-72
2022/10/29 01:06:56;;;;;;;74.57;51.28;;;9.20;99.90;;;;;;4954659;29;20047;-72
2022/10/29 01:09:23;;;;;;;73.50;52.58;;;9.10;99.90;;;;;;4954382;29;20039;-72
2022/10/29 01:12:02;;;;;;;66.03;45.65;;;9.10;99.90;;;;;;4955021;29;20119;-73
2022/10/29 01:14:35;;;;;;;75.03;48.65;;;9.00;99.90;;;;;;4955011;29;20123;-72
2022/10/29 01:17:14;;;;;;;62.70;45.25;;;8.90;99.90;;;;;;4954534;29;20046;-73
2022/10/29 01:20:20;;;;;;;92.03;51.92;;;8.80;99.90;;;;;;4954888;29;20047;-71
2022/10/29 01:22:57;;;;;;;75.65;51.35;;;8.80;99.90;;;;;;4955387;29;20047;-71
2022/10/29 01:25:43;;;;;;;72.47;49.78;;;8.80;99.90;;;;;;4954999;29;20400;-71
2022/10/29 01:28:21;;;;;;;64.65;45.88;;;8.80;99.90;;;;;;4959808;29;20507;-73
2022/10/29 01:31:24;;;;;;;64.00;45.63;;;8.80;99.90;;;;;;4956542;29;20098;-72
2022/10/29 01:34:01;;;;;;;79.43;50.45;;;8.70;99.90;;;;;;4956362;29;20503;-71
2022/10/29 01:36:32;;;;;;;75.88;52.30;;;8.60;99.90;;;;;;4954681;29;20503;-73
2022/10/29 01:39:07;;;;;;;78.38;51.63;;;8.50;99.90;;;;;;4960671;29;20393;-71
2022/10/29 01:41:44;;;;;;;81.78;49.67;;;8.40;99.90;;;;;;4958054;29;20051;-72
2022/10/29 01:44:21;;;;;;;102.38;52.65;;;8.40;99.90;;;;;;4954216;29;20070;-73
2022/10/29 01:46:53;;;;;;;70.55;50.63;;;8.40;99.90;;;;;;4953938;29;20043;-72
2022/10/29 01:49:27;;;;;;;65.10;49.85;;;8.40;99.90;;;;;;4958365;28;20046;-72
2022/10/29 01:51:56;;;;;;;78.82;50.50;;;8.50;99.90;;;;;;4973758;28;20047;-73
2022/10/29 01:54:24;;;;;;;75.70;52.58;;;8.60;99.90;;;;;;4955909;28;20042;-71
2022/10/29 01:56:55;;;;;;;63.65;49.85;;;8.60;99.90;;;;;;4955736;28;20514;-71
2022/10/29 01:59:24;;;;;;;76.65;49.25;;;8.70;99.90;;;;;;4958020;28;20062;-73
2022/10/29 02:02:02;;;;;;;76.85;47.58;;;8.60;99.90;;;;;;4936114;29;20043;-72
2022/10/29 02:04:52;;;;;;;72.13;45.42;;;8.60;99.90;;;;;;4957275;28;20066;-70
2022/10/29 02:07:29;;;;;;;79.47;45.55;;;8.60;99.90;;;;;;4953507;29;20066;-72
2022/10/29 02:10:03;;;;;;;102.22;49.17;;;8.60;99.90;;;;;;4954204;29;20114;-72
2022/10/29 02:12:37;;;;;;;76.82;48.58;;;8.60;99.90;;;;;;4954299;29;20043;-72
2022/10/29 02:15:09;;;;;;;72.38;50.78;;;8.60;99.90;;;;;;4953997;29;20075;-71
2022/10/29 02:17:37;;;;;;;72.85;50.30;;;8.60;99.90;;;;;;4936466;29;20047;-71
2022/10/29 02:20:10;;;;;;;68.13;46.85;;;8.60;99.90;;;;;;4954944;28;20078;-71
2022/10/29 02:22:37;;;;;;;63.22;43.92;;;8.60;99.90;;;;;;4953988;28;20419;-72
2022/10/29 02:25:06;;;;;;;58.78;41.80;;;8.60;99.90;;;;;;4940425;29;20046;-71
2022/10/29 02:27:34;;;;;;;63.63;38.63;;;8.60;99.90;;;;;;4935879;29;20047;-72
2022/10/29 02:30:02;;;;;;;58.28;37.65;;;8.60;99.90;;;;;;4953837;29;20055;-72
2022/10/29 02:32:31;;;;;;;59.40;38.70;;;8.50;99.90;;;;;;4953447;29;20090;-72
2022/10/29 02:34:58;;;;;;;62.08;35.60;;;8.50;99.90;;;;;;4953316;29;20289;-71
2022/10/29 02:37:27;;;;;;;60.92;38.20;;;8.60;99.90;;;;;;4935973;29;20043;-74
2022/10/29 02:39:54;;;;;;;78.05;39.88;;;8.60;99.90;;;;;;4954096;29;20050;-72
2022/10/29 02:42:22;;;;;;;60.95;38.95;;;8.60;99.90;;;;;;4954423;29;20042;-73
2022/10/29 02:44:50;;;;;;;48.85;38.85;;;8.60;99.90;;;;;;4935772;29;20094;-72
2022/10/29 02:47:17;;;;;;;46.63;38.40;;;8.60;99.90;;;;;;4953158;28;20097;-72
2022/10/29 02:49:44;;;;;;;53.97;39.08;;;8.60;99.90;;;;;;4964761;28;20035;-73
2022/10/29 02:52:12;;;;;;;52.33;38.13;;;8.60;99.90;;;;;;4972739;28;20038;-72
2022/10/29 02:54:41;;;;;;;51.55;37.20;;;8.60;99.90;;;;;;4972628;28;20043;-71
2022/10/29 02:57:09;;;;;;;52.20;38.15;;;8.60;99.90;;;;;;4972066;28;20053;-73
2022/10/29 02:59:36;;;;;;;55.03;38.20;;;8.60;99.90;;;;;;4959291;28;20043;-72
2022/10/29 03:02:04;;;;;;;66.13;38.00;;;8.60;99.90;;;;;;4953308;29;20070;-71
2022/10/29 03:04:31;;;;;;;75.63;40.25;;;8.60;99.90;;;;;;4953195;29;20436;-72
2022/10/29 03:06:59;;;;;;;70.35;41.05;;;8.50;99.90;;;;;;4952796;29;20043;-71
2022/10/29 03:09:27;;;;;;;76.72;40.53;;;8.50;99.90;;;;;;4967810;28;20047;-72
2022/10/29 03:11:56;;;;;;;81.55;41.13;;;8.40;99.90;;;;;;4972553;28;20066;-72
2022/10/29 03:14:23;;;;;;;59.88;40.30;;;8.40;99.90;;;;;;4958588;28;20039;-71
2022/10/29 03:16:51;;;;;;;50.63;38.67;;;8.40;99.90;;;;;;4952667;29;20043;-71
2022/10/29 03:19:18;;;;;;;60.63;39.97;;;8.40;99.90;;;;;;4953345;29;20048;-71
2022/10/29 03:21:45;;;;;;;70.57;39.78;;;8.40;99.90;;;;;;4935892;29;20492;-72
2022/10/29 03:24:13;;;;;;;57.38;39.00;;;8.40;99.90;;;;;;4953123;29;20094;-70
2022/10/29 03:26:40;;;;;;;55.17;39.97;;;8.40;99.90;;;;;;4935191;29;20448;-72
2022/10/29 03:29:10;;;;;;;61.38;41.58;;;8.40;99.90;;;;;;4953037;29;20055;-72
2022/10/29 03:31:38;;;;;;;76.43;45.88;;;8.40;99.90;;;;;;4952614;29;20110;-72
2022/10/29 03:34:05;;;;;;;71.90;47.83;;;8.40;99.90;;;;;;4935707;29;20467;-74
2022/10/29 03:36:33;;;;;;;65.45;45.08;;;8.50;99.90;;;;;;4952373;29;20039;-71
2022/10/29 03:39:00;;;;;;;80.28;44.13;;;8.50;99.90;;;;;;4952100;29;20122;-72
2022/10/29 03:41:28;;;;;;;64.55;42.55;;;8.50;99.90;;;;;;4958271;29;20047;-72
2022/10/29 03:43:55;;;;;;;61.08;40.33;;;8.60;99.90;;;;;;4956507;29;20047;-71
2022/10/29 03:46:24;;;;;;;65.18;40.60;;;8.60;99.90;;;;;;4937024;29;20051;-73
2022/10/29 03:48:51;;;;;;;66.38;40.88;;;8.60;99.90;;;;;;4959922;29;20063;-72
2022/10/29 03:51:19;;;;;;;67.70;41.05;;;8.60;99.90;;;;;;4962131;29;20050;-71
2022/10/29 03:53:47;;;;;;;62.85;41.60;;;8.50;99.90;;;;;;4954145;29;20122;-71
2022/10/29 03:56:14;;;;;;;62.53;44.30;;;8.40;99.90;;;;;;4955104;29;20039;-72
2022/10/29 03:58:41;;;;;;;63.17;42.40;;;8.50;99.90;;;;;;4954689;29;20067;-72
2022/10/29 04:01:10;;;;;;;72.53;44.97;;;8.40;99.90;;;;;;4958330;29;20067;-72
2022/10/29 04:03:41;;;;;;;63.72;42.80;;;8.40;99.90;;;;;;4954763;29;20110;-72
2022/10/29 04:06:12;;;;;;;59.72;41.88;;;8.40;99.90;;;;;;4952157;29;20323;-72
2022/10/29 04:08:40;;;;;;;61.92;41.60;;;8.40;99.90;;;;;;4952079;29;20094;-72
2022/10/29 04:11:11;;;;;;;62.42;41.35;;;8.40;99.90;;;;;;4952828;29;20047;-72
2022/10/29 04:13:38;;;;;;;67.63;41.60;;;8.40;99.90;;;;;;4952647;29;20059;-71
2022/10/29 04:16:07;;;;;;;78.82;42.50;;;8.50;99.90;;;;;;4934937;29;20047;-71
2022/10/29 04:18:34;;;;;;;78.47;41.08;;;8.50;99.90;;;;;;4952812;29;20106;-71
2022/10/29 04:21:03;;;;;;;55.88;37.67;;;8.50;99.90;;;;;;4952278;29;20047;-72
2022/10/29 04:23:32;;;;;;;90.97;41.30;;;8.40;99.90;;;;;;4952490;28;20043;-72
2022/10/29 04:26:00;;;;;;;93.65;50.25;;;8.40;99.90;;;;;;4953934;29;20043;-73
2022/10/29 04:28:28;;;;;;;62.67;40.30;;;8.40;99.90;;;;;;4953478;29;20060;-71
2022/10/29 04:30:55;;;;;;;71.78;40.35;;;8.40;99.90;;;;;;4955878;29;20102;-72
2022/10/29 04:33:22;;;;;;;64.22;39.38;;;8.40;99.90;;;;;;4955812;29;20076;-72
2022/10/29 04:35:53;;;;;;;66.13;36.63;;;8.40;99.90;;;;;;4955267;29;20043;-71
2022/10/29 04:38:21;;;;;;;66.03;38.30;;;8.50;99.90;;;;;;4961209;28;20067;-71
2022/10/29 04:40:49;;;;;;;54.80;38.13;;;8.50;99.90;;;;;;4955382;29;20058;-72
2022/10/29 04:43:17;;;;;;;63.38;38.50;;;8.40;99.90;;;;;;4955553;29;20039;-73
2022/10/29 04:45:50;;;;;;;60.50;39.35;;;8.40;99.90;;;;;;4935865;29;20044;-71
2022/10/29 04:48:17;;;;;;;48.35;34.70;;;8.50;99.90;;;;;;4936376;29;20455;-72
2022/10/29 04:50:45;;;;;;;64.80;39.42;;;8.50;99.90;;;;;;4936113;29;20047;-72
2022/10/29 04:53:13;;;;;;;68.13;39.55;;;8.50;99.90;;;;;;4937772;29;20047;-72
2022/10/29 04:55:42;;;;;;;58.75;36.90;;;8.50;99.90;;;;;;4955751;29;20043;-72
2022/10/29 04:58:13;;;;;;;53.67;37.38;;;8.50;99.90;;;;;;4957326;29;20043;-73
2022/10/29 05:00:41;;;;;;;63.47;37.50;;;8.50;99.90;;;;;;4937990;29;20063;-72
2022/10/29 05:03:09;;;;;;;63.60;37.45;;;8.50;99.90;;;;;;4955068;29;20491;-73
2022/10/29 05:05:37;;;;;;;66.70;38.70;;;8.50;99.90;;;;;;4955090;29;20499;-71
2022/10/29 05:08:06;;;;;;;64.43;40.00;;;8.50;99.90;;;;;;4954804;29;20040;-72
2022/10/29 05:10:35;;;;;;;66.82;39.42;;;8.50;99.90;;;;;;4955221;29;20043;-72
2022/10/29 05:13:05;;;;;;;62.05;39.10;;;8.50;99.90;;;;;;4955314;29;20050;-71
2022/10/29 05:15:33;;;;;;;73.22;40.92;;;8.60;99.90;;;;;;4954887;29;20039;-70
2022/10/29 05:18:01;;;;;;;65.80;40.95;;;8.60;99.90;;;;;;4955060;29;20050;-72
2022/10/29 05:20:28;;;;;;;72.43;41.03;;;8.60;99.90;;;;;;4954579;29;20047;-72
2022/10/29 05:22:59;;;;;;;63.10;40.95;;;8.60;99.90;;;;;;4954838;29;20048;-71
2022/10/29 05:25:27;;;;;;;71.57;40.80;;;8.60;99.90;;;;;;4954277;29;20497;-73
2022/10/29 05:28:04;;;;;;;65.90;40.60;;;8.50;99.90;;;;;;4954793;29;20043;-72
2022/10/29 05:30:32;;;;;;;62.95;40.25;;;8.60;99.90;;;;;;4954628;29;20541;-72
2022/10/29 05:33:00;;;;;;;63.95;37.90;;;8.50;99.90;;;;;;4956102;29;20043;-72
2022/10/29 05:35:28;;;;;;;58.97;38.75;;;8.50;99.90;;;;;;4960676;28;20071;-72
2022/10/29 05:37:56;;;;;;;81.88;39.92;;;8.50;99.90;;;;;;4960678;29;20047;-72
2022/10/29 05:40:24;;;;;;;65.53;39.47;;;8.50;99.90;;;;;;4955230;29;20039;-71
2022/10/29 05:42:51;;;;;;;66.32;43.70;;;8.50;99.90;;;;;;4953776;29;20043;-71
2022/10/29 05:45:20;;;;;;;72.63;44.92;;;8.40;99.90;;;;;;4954063;29;20051;-72
2022/10/29 05:47:48;;;;;;;63.28;42.63;;;8.50;99.90;;;;;;4953781;28;20042;-72
2022/10/29 05:50:15;;;;;;;78.28;45.97;;;8.50;99.90;;;;;;4962599;28;20054;-72
2022/10/29 05:52:43;;;;;;;78.35;48.35;;;8.60;99.90;;;;;;4967282;28;20047;-71
2022/10/29 05:55:10;;;;;;;79.72;46.45;;;8.70;99.90;;;;;;4964772;28;20066;-71
2022/10/29 05:57:38;;;;;;;86.93;44.65;;;8.70;99.90;;;;;;4954558;28;20144;-71
2022/10/29 06:00:06;;;;;;;87.65;48.70;;;8.70;99.90;;;;;;4954267;29;20039;-72
2022/10/29 06:02:43;;;;;;;132.85;49.97;;;8.80;99.90;;;;;;4953973;28;20058;-71
2022/10/29 06:05:12;;;;;;;57.28;39.45;;;8.90;99.90;;;;;;4954344;29;20110;-72
2022/10/29 06:07:39;;;;;;;66.47;39.83;;;9.00;99.90;;;;;;4936464;29;20050;-72
2022/10/29 06:10:08;;;;;;;65.05;38.30;;;8.90;99.90;;;;;;4955813;28;20103;-72
2022/10/29 06:12:35;;;;;;;79.55;41.55;;;8.90;99.90;;;;;;4954237;28;20055;-70
2022/10/29 06:15:02;;;;;;;70.55;38.55;;;9.00;99.90;;;;;;4954420;29;20094;-72
2022/10/29 06:17:29;;;;;;;58.42;39.28;;;9.10;99.90;;;;;;4962832;29;20043;-72
2022/10/29 06:19:58;;;;;;;68.43;38.80;;;9.10;99.90;;;;;;4968236;28;20039;-71
2022/10/29 06:22:26;;;;;;;59.22;38.33;;;9.20;99.90;;;;;;4952688;29;20110;-72
2022/10/29 06:24:53;;;;;;;48.33;34.63;;;9.30;99.90;;;;;;4962824;29;20448;-71
2022/10/29 06:27:21;;;;;;;60.55;30.83;;;9.30;99.90;;;;;;4953697;29;20046;-72
2022/10/29 06:29:49;;;;;;;72.30;33.35;;;9.40;99.90;;;;;;4953072;28;20081;-71
2022/10/29 06:32:16;;;;;;;55.63;33.95;;;9.40;99.90;;;;;;4953804;29;20543;-71
2022/10/29 06:34:44;;;;;;;88.53;31.35;;;9.60;99.90;;;;;;4936784;29;20554;-71
2022/10/29 06:37:12;;;;;;;55.20;34.50;;;9.60;99.90;;;;;;4934472;29;20059;-71
2022/10/29 06:39:40;;;;;;;72.70;41.30;;;9.70;99.90;;;;;;4948873;28;20054;-70
2022/10/29 06:42:07;;;;;;;75.85;44.03;;;9.70;99.90;;;;;;4936142;29;20061;-71
2022/10/29 06:44:35;;;;;;;61.97;38.83;;;9.70;99.90;;;;;;4927847;29;20039;-72
2022/10/29 06:47:03;;;;;;;63.55;37.95;;;9.80;99.90;;;;;;4951609;28;20094;-71
2022/10/29 06:49:30;;;;;;;61.78;38.53;;;9.80;99.90;;;;;;4952846;29;20035;-72
2022/10/29 06:51:58;;;;;;;64.70;38.22;;;9.90;99.90;;;;;;4953213;29;20078;-72
2022/10/29 06:54:26;;;;;;;59.08;34.53;;;10.00;99.90;;;;;;4935787;29;20392;-73
2022/10/29 06:56:54;;;;;;;56.00;30.25;;;10.00;99.90;;;;;;4952668;29;20057;-72
2022/10/29 06:59:24;;;;;;;48.00;30.88;;;10.10;99.90;;;;;;4935122;29;20133;-71
2022/10/29 07:01:52;;;;;;;55.38;32.58;;;10.10;99.90;;;;;;4934288;29;20511;-71
2022/10/29 07:04:20;;;;;;;46.35;30.40;;;10.20;99.90;;;;;;4950775;29;20067;-73
2022/10/29 07:06:47;;;;;;;73.82;40.97;;;10.20;99.90;;;;;;4952378;29;20117;-73
2022/10/29 07:09:15;;;;;;;77.75;39.30;;;10.30;99.90;;;;;;4953316;29;20204;-71
2022/10/29 07:11:43;;;;;;;85.50;42.08;;;10.40;99.90;;;;;;4952661;29;20043;-72
2022/10/29 07:14:11;;;;;;;84.85;39.10;;;10.40;99.90;;;;;;4953947;29;20574;-73
2022/10/29 07:16:38;;;;;;;107.78;44.70;;;10.50;99.90;;;;;;4935189;29;20047;-71
2022/10/29 07:19:06;;;;;;;99.30;44.15;;;10.50;99.90;;;;;;4952919;29;20047;-74
2022/10/29 07:21:34;;;;;;;84.40;43.63;;;10.60;99.90;;;;;;4952644;29;20047;-73
2022/10/29 07:24:01;;;;;;;76.10;42.67;;;10.70;99.90;;;;;;4952266;29;20130;-73
2022/10/29 07:26:28;;;;;;;65.10;38.60;;;10.70;99.90;;;;;;4952158;29;20043;-73
2022/10/29 07:28:57;;;;;;;60.75;37.10;;;10.80;99.90;;;;;;4963997;28;20519;-73
2022/10/29 07:31:24;;;;;;;56.80;34.72;;;11.00;99.90;;;;;;4933781;29;20127;-73
2022/10/29 07:33:52;;;;;;;55.00;34.42;;;11.00;99.90;;;;;;4952243;29;20047;-72
2022/10/29 07:36:19;;;;;;;53.30;34.95;;;11.20;99.90;;;;;;4951714;29;20114;-72
2022/10/29 07:38:47;;;;;;;44.35;30.73;;;11.20;99.90;;;;;;4952440;28;20134;-72
2022/10/29 07:41:15;;;;;;;43.28;31.90;;;11.30;99.90;;;;;;4935380;29;20468;-72
2022/10/29 07:43:42;;;;;;;45.53;31.15;;;11.40;99.90;;;;;;4952001;29;20046;-73
2022/10/29 07:46:11;;;;;;;40.67;29.20;;;11.40;99.90;;;;;;4951548;28;20047;-72
2022/10/29 07:48:38;;;;;;;40.35;29.20;;;11.60;99.90;;;;;;4952611;29;20047;-71
2022/10/29 07:51:06;;;;;;;38.28;27.70;;;11.60;99.90;;;;;;4952318;28;20125;-71
2022/10/29 07:53:33;;;;;;;35.40;26.75;;;11.80;99.90;;;;;;4952660;28;20039;-73
2022/10/29 07:56:00;;;;;;;41.03;28.55;;;11.80;99.90;;;;;;4952641;29;20047;-72
2022/10/29 07:58:28;;;;;;;38.13;27.50;;;11.80;99.90;;;;;;4953813;28;20043;-73
2022/10/29 08:00:55;;;;;;;37.60;28.05;;;11.90;99.90;;;;;;4959249;28;20047;-73
2022/10/29 08:03:24;;;;;;;37.88;26.50;;;12.00;99.90;;;;;;4959090;29;20168;-72
2022/10/29 08:05:52;;;;;;;35.25;26.60;;;12.20;99.90;;;;;;4957281;29;20431;-71
2022/10/29 08:08:19;;;;;;;33.30;26.90;;;12.10;99.90;;;;;;4956248;29;20106;-71
2022/10/29 08:10:47;;;;;;;32.75;26.33;;;12.00;99.90;;;;;;4955556;29;20102;-72
2022/10/29 08:13:14;;;;;;;35.28;28.00;;;12.00;99.90;;;;;;4955556;29;20090;-72
2022/10/29 08:15:41;;;;;;;39.03;29.20;;;12.00;99.90;;;;;;4938072;29;20055;-71
2022/10/29 08:18:15;;;;;;;41.22;31.20;;;12.00;99.90;;;;;;4955752;29;20043;-71
2022/10/29 08:20:44;;;;;;;40.65;30.77;;;12.10;99.90;;;;;;4955467;29;20522;-72
2022/10/29 08:23:12;;;;;;;38.63;30.55;;;12.20;99.90;;;;;;4955900;29;20043;-73
2022/10/29 08:25:41;;;;;;;36.30;29.65;;;12.30;99.90;;;;;;4955635;29;20047;-71
2022/10/29 08:28:11;;;;;;;35.53;27.38;;;12.30;99.90;;;;;;4955782;29;20047;-72
2022/10/29 08:30:39;;;;;;;35.35;27.33;;;12.40;99.90;;;;;;4938663;29;20431;-73
2022/10/29 08:33:06;;;;;;;37.22;30.17;;;12.50;99.90;;;;;;4956270;29;20039;-72
2022/10/29 08:35:34;;;;;;;38.55;29.27;;;12.70;99.90;;;;;;4954334;28;20495;-71
2022/10/29 08:40:46;;;;;;;35.40;29.10;;;12.80;99.90;;;;;;4972779;23;20103;-73
2022/10/29 08:43:46;;;;;;;38.58;29.33;;;13.00;99.90;;;;;;4969858;28;20042;-73
2022/10/29 08:46:19;;;;;;;36.58;30.52;;;13.10;99.90;;;;;;4958885;28;20040;-72
2022/10/29 08:48:51;;;;;;;36.15;28.10;;;13.20;99.90;;;;;;4975857;28;20118;-70
2022/10/29 08:51:23;;;;;;;35.72;30.30;;;13.30;99.90;;;;;;4988560;28;20069;-73
2022/10/29 08:53:52;;;;;;;36.15;29.65;;;13.50;99.90;;;;;;4984633;28;20401;-72
2022/10/29 08:56:27;;;;;;;41.40;29.65;;;13.70;99.90;;;;;;4973565;28;20051;-72
2022/10/29 08:58:59;;;;;;;40.40;32.42;;;13.80;99.90;;;;;;4973995;28;20094;-72
2022/10/29 09:01:27;;;;;;;43.72;29.63;;;14.10;99.90;;;;;;4976202;28;20035;-71
2022/10/29 09:03:55;;;;;;;40.13;28.63;;;14.20;99.90;;;;;;4974561;28;20046;-73
2022/10/29 09:06:34;;;;;;;37.00;28.02;;;14.40;99.90;;;;;;4990828;28;20101;-71
2022/10/29 09:09:24;;;;;;;38.10;27.77;;;14.50;99.90;;;;;;4979350;28;20050;-73
2022/10/29 09:12:26;;;;;;;38.97;27.52;;;14.70;99.90;;;;;;4979967;28;20478;-71
2022/10/29 09:15:18;;;;;;;42.47;28.85;;;14.80;99.90;;;;;;4992142;28;20077;-71
2022/10/29 09:17:55;;;;;;;41.13;28.08;;;15.00;99.90;;;;;;4990202;28;20039;-71
2022/10/29 09:20:32;;;;;;;35.83;27.50;;;15.20;99.90;;;;;;4985439;28;20035;-71
2022/10/29 09:23:07;;;;;;;41.38;29.77;;;15.30;99.90;;;;;;4982845;28;20043;-71
2022/10/29 09:25:44;;;;;;;40.33;31.00;;;15.40;99.90;;;;;;4986174;28;20095;-75
2022/10/29 09:28:25;;;;;;;38.75;30.40;;;15.50;99.90;;;;;;4979008;28;20298;-75
2022/10/29 09:31:06;;;;;;;40.47;31.23;;;15.70;99.90;;;;;;4977669;28;20047;-77
2022/10/29 09:33:33;;;;;;;35.60;26.10;;;15.80;99.90;;;;;;4974802;28;20042;-75
2022/10/29 09:36:01;;;;;;;29.85;24.08;;;15.90;99.90;;;;;;4985889;28;20042;-74
2022/10/29 09:38:33;;;;;;;39.13;27.77;;;16.10;99.90;;;;;;4987569;28;20478;-76
2022/10/29 09:41:02;;;;;;;30.88;25.25;;;16.20;99.90;;;;;;4974217;28;20053;-76
2022/10/29 09:43:38;;;;;;;31.48;23.70;;;16.40;99.90;;;;;;4984679;28;20121;-77
2022/10/29 09:46:12;;;;;;;33.22;25.23;;;16.40;99.90;;;;;;4984606;28;20134;-75
2022/10/29 09:48:49;;;;;;;38.42;26.83;;;16.60;99.90;;;;;;4986452;28;20080;-75
2022/10/29 09:51:26;;;;;;;30.00;23.00;;;16.80;99.90;;;;;;4992320;28;20045;-75
2022/10/29 09:53:53;;;;;;;28.90;22.48;;;16.90;99.90;;;;;;4988263;28;20463;-75
2022/10/29 09:56:21;;;;;;;34.47;26.58;;;17.00;99.90;;;;;;4992701;28;20438;-75
2022/10/29 09:58:55;;;;;;;31.52;22.85;;;17.10;99.90;;;;;;4991532;28;20042;-75
2022/10/29 10:01:22;;;;;;;39.38;28.13;;;17.10;99.90;;;;;;4992648;28;20070;-73
2022/10/29 10:03:55;;;;;;;40.03;31.10;;;17.20;99.90;;;;;;4991926;28;20030;-74
2022/10/29 10:06:22;;;;;;;35.45;26.02;;;17.30;99.90;;;;;;4992708;28;20038;-75
2022/10/29 10:09:07;;;;;;;43.15;30.48;;;17.40;99.90;;;;;;4980410;28;20494;-75
2022/10/29 10:11:38;;;;;;;41.05;28.83;;;17.50;99.90;;;;;;4971125;28;20137;-74
2022/10/29 10:14:14;;;;;;;39.85;29.83;;;17.60;99.90;;;;;;4970948;28;20050;-76
2022/10/29 10:16:43;;;;;;;40.38;30.92;;;17.80;99.90;;;;;;4971422;28;20118;-74
2022/10/29 10:19:23;;;;;;;42.75;30.13;;;17.90;99.90;;;;;;4971443;28;20125;-73
2022/10/29 10:21:59;;;;;;;39.08;28.15;;;18.00;99.90;;;;;;4977852;28;20409;-75
2022/10/29 10:24:31;;;;;;;34.70;27.63;;;18.10;99.90;;;;;;4991900;28;20121;-75
2022/10/29 10:26:59;;;;;;;43.80;31.88;;;18.20;99.90;;;;;;4992584;28;20053;-76
2022/10/29 10:29:28;;;;;;;42.28;29.05;;;18.20;99.90;;;;;;4990552;28;20039;-75
2022/10/29 10:32:15;;;;;;;45.53;30.02;;;18.30;99.90;;;;;;4976174;28;20101;-75
2022/10/29 10:34:42;;;;;;;41.50;30.55;;;18.40;99.90;;;;;;4972810;28;20038;-75
2022/10/29 10:37:17;;;;;;;48.55;35.17;;;18.40;99.90;;;;;;4972831;28;20039;-76
2022/10/29 10:39:47;;;;;;;49.20;34.73;;;18.50;99.90;;;;;;4989374;28;20061;-75
2022/10/29 10:42:22;;;;;;;45.55;32.05;;;18.60;99.90;;;;;;4992039;28;20375;-74
2022/10/29 10:44:53;;;;;;;42.27;30.00;;;18.70;99.90;;;;;;4990551;28;20042;-74
2022/10/29 10:47:24;;;;;;;46.85;32.42;;;18.70;99.90;;;;;;4987347;28;20035;-74
2022/10/29 10:49:51;;;;;;;39.50;30.83;;;18.80;99.90;;;;;;4984881;28;20043;-73
2022/10/29 10:52:22;;;;;;;48.22;32.45;;;18.80;99.90;;;;;;4972215;28;20542;-74
2022/10/29 10:54:59;;;;;;;45.92;32.53;;;18.90;99.90;;;;;;4982725;28;20129;-75
2022/10/29 10:57:31;;;;;;;41.60;32.58;;;19.00;99.90;;;;;;4990410;28;20490;-74
2022/10/29 11:00:05;;;;;;;40.33;31.75;;;19.00;99.90;;;;;;4989115;28;20038;-75
2022/10/29 11:02:45;;;;;;;46.03;33.65;;;19.00;99.90;;;;;;4974700;28;20049;-75
2022/10/29 11:05:18;;;;;;;44.55;33.65;;;19.20;99.90;;;;;;4972658;28;20113;-74
2022/10/29 11:07:53;;;;;;;45.30;33.67;;;19.30;99.90;;;;;;4972586;28;20070;-75
2022/10/29 11:10:24;;;;;;;43.60;31.33;;;19.30;99.90;;;;;;4971736;28;20544;-74
2022/10/29 11:12:54;;;;;;;39.05;29.58;;;19.50;99.90;;;;;;4980700;28;20050;-74
2022/10/29 11:15:36;;;;;;;39.58;28.50;;;19.50;99.90;;;;;;4988534;28;20069;-74
2022/10/29 11:18:11;;;;;;;40.15;30.30;;;19.50;99.90;;;;;;4991746;28;20039;-75
2022/10/29 11:20:40;;;;;;;41.08;30.63;;;19.70;99.90;;;;;;4975475;28;20034;-74
2022/10/29 11:23:33;;;;;;;44.17;33.70;;;19.80;99.90;;;;;;4972327;28;20047;-74
2022/10/29 11:26:08;;;;;;;45.47;32.05;;;19.80;99.90;;;;;;4972053;28;20038;-74
2022/10/29 11:28:39;;;;;;;44.10;30.23;;;19.90;99.90;;;;;;4971369;28;20051;-74
2022/10/29 11:31:16;;;;;;;39.35;27.10;;;19.90;99.90;;;;;;4973674;28;20093;-74
2022/10/29 11:33:50;;;;;;;41.13;26.83;;;20.00;99.90;;;;;;4992832;28;20469;-74
2022/10/29 11:36:21;;;;;;;35.70;24.67;;;20.00;99.90;;;;;;4981166;28;20486;-74
2022/10/29 11:38:53;;;;;;;36.78;26.27;;;20.00;99.90;;;;;;4985742;28;20441;-74
2022/10/29 11:41:26;;;;;;;42.22;28.25;;;20.10;99.90;;;;;;4989088;28;20039;-74
2022/10/29 11:43:54;;;;;;;37.72;24.15;;;20.10;99.90;;;;;;4990502;28;20043;-74
2022/10/29 11:46:41;;;;;;;31.20;21.70;;;20.20;99.90;;;;;;4994660;28;20038;-76
2022/10/29 11:49:29;;;;;;;33.63;20.95;;;20.30;99.90;;;;;;4997266;28;20070;-75
2022/10/29 11:52:08;;;;;;;25.85;18.48;;;20.40;99.90;;;;;;4997070;28;20049;-74
2022/10/29 11:54:47;;;;;;;25.70;16.55;;;20.40;99.90;;;;;;4996081;28;20556;-74
2022/10/29 11:57:22;;;;;;;22.85;17.13;;;20.50;99.90;;;;;;4997697;28;20069;-74
2022/10/29 12:00:04;;;;;;;22.83;15.70;;;20.50;99.90;;;;;;4997794;28;20039;-74
2022/10/29 12:03:16;;;;;;;20.98;11.55;;;20.60;99.90;;;;;;4992746;28;20581;-77
2022/10/29 12:05:51;;;;;;;14.50;10.32;;;20.60;99.30;;;;;;4996808;28;20138;-75
2022/10/29 12:08:29;;;;;;;109.72;22.50;;;20.70;96.60;;;;;;4990082;28;20039;-75
2022/10/29 12:11:07;;;;;;;17.20;10.60;;;20.70;94.60;;;;;;4977943;28;20130;-74
2022/10/29 12:13:48;;;;;;;14.43;10.18;;;20.70;94.20;;;;;;4977964;28;20058;-73
2022/10/29 12:16:27;;;;;;;15.95;10.07;;;20.80;93.10;;;;;;4976720;28;20082;-75
2022/10/29 12:19:06;;;;;;;14.60;9.63;;;20.90;92.10;;;;;;4977697;28;20042;-73
2022/10/29 12:21:42;;;;;;;18.50;11.30;;;21.00;92.40;;;;;;4995536;28;20118;-74
2022/10/29 12:24:26;;;;;;;16.67;11.52;;;21.00;92.40;;;;;;4996332;28;20452;-74
2022/10/29 12:27:02;;;;;;;14.98;10.43;;;21.00;91.60;;;;;;4996165;28;20039;-74
2022/10/29 12:29:38;;;;;;;19.20;11.13;;;21.10;91.20;;;;;;4996783;28;20042;-74
2022/10/29 12:32:13;;;;;;;12.45;8.73;;;21.10;91.60;;;;;;4991631;28;20052;-74
2022/10/29 12:34:47;;;;;;;13.90;9.15;;;21.20;90.50;;;;;;4978773;28;20043;-74
2022/10/29 12:37:22;;;;;;;14.10;8.95;;;21.20;89.40;;;;;;4977374;28;20046;-73
2022/10/29 12:39:57;;;;;;;16.55;9.50;;;21.20;88.40;;;;;;4988588;28;20446;-74
2022/10/29 12:42:26;;;;;;;14.77;9.73;;;21.30;88.70;;;;;;4982425;28;20039;-75
2022/10/29 12:45:03;;;;;;;13.00;9.75;;;21.30;87.10;;;;;;4992074;28;20070;-74
2022/10/29 12:47:38;;;;;;;14.43;8.95;;;21.40;86.40;;;;;;4974779;28;20117;-74
2022/10/29 12:50:25;;;;;;;12.35;9.20;;;21.40;87.40;;;;;;4982441;28;20059;-77
2022/10/29 12:53:03;;;;;;;14.35;8.23;;;21.40;86.60;;;;;;4984637;28;20039;-73
2022/10/29 12:55:32;;;;;;;14.27;7.43;;;21.40;86.70;;;;;;4987832;28;20303;-74
2022/10/29 12:57:59;;;;;;;13.27;8.38;;;21.40;87.40;;;;;;4991074;28;20038;-74